createdAt,value
2022-12-03T00:02:03.497Z,6.97
2022-12-03T00:05:05.942Z,6.78
2022-12-03T00:08:08.083Z,6.82
2022-12-03T00:11:10.185Z,6.94
2022-12-03T00:14:12.231Z,7.08
2022-12-03T00:17:14.313Z,7.20
2022-12-03T00:20:21.854Z,7.10
2022-12-03T00:23:23.928Z,6.96
2022-12-03T00:26:27.577Z,6.82
2022-12-03T00:29:29.892Z,6.69
2022-12-03T00:32:31.921Z,6.63
2022-12-03T00:35:33.996Z,6.87
2022-12-03T00:38:36.032Z,6.67
2022-12-03T00:41:38.080Z,6.80
2022-12-03T00:44:40.105Z,6.68
2022-12-03T00:47:42.170Z,6.55
2022-12-03T00:50:44.233Z,6.70
2022-12-03T00:53:46.258Z,6.66
2022-12-03T00:56:48.305Z,6.60
2022-12-03T00:59:50.329Z,6.53
2022-12-03T01:02:52.779Z,6.48
2022-12-03T01:05:54.818Z,6.58
2022-12-03T01:08:56.838Z,6.64
2022-12-03T01:11:58.878Z,6.74
2022-12-03T01:15:01.214Z,6.72
2022-12-03T01:18:03.265Z,6.68
2022-12-03T01:21:05.476Z,6.93
2022-12-03T01:24:07.579Z,6.88
2022-12-03T01:27:09.592Z,6.91
2022-12-03T01:30:12.829Z,7.01
2022-12-03T01:33:14.874Z,6.93
2022-12-03T01:36:16.928Z,6.88
2022-12-03T01:39:19.681Z,6.60
2022-12-03T01:42:34.530Z,6.70
2022-12-03T01:45:36.611Z,6.56
2022-12-03T01:48:38.747Z,6.91
2022-12-03T01:51:40.857Z,6.74
2022-12-03T01:54:48.428Z,6.76
2022-12-03T01:57:52.837Z,6.81
2022-12-03T02:00:55.027Z,6.75
2022-12-03T02:03:57.125Z,6.50
2022-12-03T02:07:27.787Z,6.39
2022-12-03T02:10:34.953Z,6.43
2022-12-03T02:13:37.055Z,6.47
2022-12-03T02:16:39.635Z,6.79
2022-12-03T02:19:41.748Z,6.61
2022-12-03T02:23:12.145Z,6.52
2022-12-03T02:26:14.161Z,6.50
2022-12-03T02:29:16.272Z,6.43
2022-12-03T02:32:19.828Z,6.50
2022-12-03T02:35:27.702Z,6.45
2022-12-03T02:38:29.669Z,6.29
2022-12-03T02:41:50.364Z,6.66
2022-12-03T02:44:52.624Z,6.42
2022-12-03T02:48:15.668Z,6.67
2022-12-03T02:51:18.242Z,6.97
2022-12-03T02:54:20.411Z,6.63
2022-12-03T02:57:22.442Z,6.57
2022-12-03T03:00:24.737Z,6.83
2022-12-03T03:03:27.879Z,6.82
2022-12-03T03:06:30.048Z,6.84
2022-12-03T03:09:32.930Z,6.83
2022-12-03T03:12:39.234Z,6.61
2022-12-03T03:15:41.791Z,6.68
2022-12-03T03:18:43.877Z,6.36
2022-12-03T03:21:46.008Z,6.53
2022-12-03T03:24:48.136Z,6.53
2022-12-03T03:27:50.236Z,6.57
2022-12-03T03:30:52.349Z,6.38
2022-12-03T03:33:54.420Z,6.50
2022-12-03T03:36:56.577Z,6.96
2022-12-03T03:39:58.667Z,6.81
2022-12-03T03:43:00.800Z,6.76
2022-12-03T03:46:04.616Z,6.54
2022-12-03T03:49:07.004Z,6.72
2022-12-03T03:52:11.580Z,6.90
2022-12-03T03:55:13.728Z,6.79
2022-12-03T03:58:15.809Z,7.14
2022-12-03T04:01:18.084Z,7.24
2022-12-03T04:04:22.577Z,6.88
2022-12-03T04:07:24.867Z,6.54
2022-12-03T04:10:45.813Z,6.46
2022-12-03T04:13:48.153Z,6.20
2022-12-03T04:16:50.399Z,6.18
2022-12-03T04:19:52.477Z,5.96
2022-12-03T04:22:54.549Z,6.25
2022-12-03T04:26:15.437Z,6.59
2022-12-03T04:29:17.558Z,6.82
2022-12-03T04:32:38.347Z,6.69
2022-12-03T04:35:43.008Z,6.56
2022-12-03T04:38:45.126Z,6.45
2022-12-03T04:41:47.282Z,6.69
2022-12-03T04:44:49.585Z,6.50
2022-12-03T04:47:51.645Z,6.33
2022-12-03T04:50:53.901Z,6.36
2022-12-03T04:53:56.003Z,6.41
2022-12-03T04:56:58.178Z,6.29
2022-12-03T05:00:00.246Z,6.04
2022-12-03T05:03:02.391Z,6.30
2022-12-03T05:06:04.590Z,6.21
2022-12-03T05:09:06.754Z,6.14
2022-12-03T05:12:08.831Z,6.18
2022-12-03T05:15:11.137Z,6.45
2022-12-03T05:18:13.211Z,6.30
2022-12-03T05:21:15.298Z,6.16
2022-12-03T05:24:17.394Z,6.10
2022-12-03T05:27:23.886Z,6.31
2022-12-03T05:30:26.559Z,6.31
2022-12-03T05:33:28.665Z,6.24
2022-12-03T05:36:30.737Z,6.37
2022-12-03T05:39:32.762Z,6.47
2022-12-03T05:42:53.426Z,6.30
2022-12-03T05:45:55.525Z,6.54
2022-12-03T05:48:57.618Z,6.74
2022-12-03T05:51:59.733Z,6.54
2022-12-03T05:55:01.946Z,6.30
2022-12-03T05:58:04.361Z,6.23
2022-12-03T06:01:06.501Z,6.26
2022-12-03T06:04:08.618Z,6.19
2022-12-03T06:07:14.003Z,5.94
2022-12-03T06:10:20.136Z,6.16
2022-12-03T06:13:22.155Z,6.24
2022-12-03T06:16:24.220Z,6.49
2022-12-03T06:19:26.332Z,6.63
2022-12-03T06:22:28.452Z,6.78
2022-12-03T06:25:30.496Z,6.72
2022-12-03T06:28:32.526Z,6.35
2022-12-03T06:31:34.676Z,6.36
2022-12-03T06:34:36.761Z,6.34
2022-12-03T06:37:38.813Z,6.28
2022-12-03T06:40:40.897Z,6.34
2022-12-03T06:43:43.123Z,6.22
2022-12-03T06:46:45.272Z,6.49
2022-12-03T06:49:47.337Z,6.66
2022-12-03T06:52:49.399Z,6.29
2022-12-03T06:55:51.436Z,5.85
2022-12-03T06:58:53.872Z,5.58
2022-12-03T07:01:55.986Z,5.46
2022-12-03T07:04:58.362Z,5.38
2022-12-03T07:08:00.849Z,5.41
2022-12-03T07:11:02.943Z,5.49
2022-12-03T07:14:07.008Z,5.53
2022-12-03T07:17:09.044Z,5.95
2022-12-03T07:20:11.543Z,5.96
2022-12-03T07:23:13.574Z,6.02
2022-12-03T07:26:15.588Z,6.50
2022-12-03T07:29:17.653Z,6.28
2022-12-03T07:32:19.696Z,6.28
2022-12-03T07:35:21.768Z,6.73
2022-12-03T07:38:24.222Z,6.43
2022-12-03T07:41:26.291Z,6.61
2022-12-03T07:44:28.504Z,6.38
2022-12-03T07:47:30.600Z,6.58
2022-12-03T07:50:32.633Z,6.44
2022-12-03T07:53:36.125Z,6.29
2022-12-03T07:56:38.225Z,6.03
2022-12-03T07:59:40.286Z,5.75
2022-12-03T08:02:44.565Z,5.87
2022-12-03T08:05:46.657Z,5.49
2022-12-03T08:08:48.706Z,5.36
2022-12-03T08:11:50.784Z,5.26
2022-12-03T08:14:53.215Z,5.30
2022-12-03T08:17:58.736Z,5.40
2022-12-03T08:21:00.798Z,5.43
2022-12-03T08:24:15.001Z,5.55
2022-12-03T08:27:18.847Z,5.75
2022-12-03T08:30:21.006Z,6.06
2022-12-03T08:33:33.575Z,5.88
2022-12-03T08:36:36.472Z,6.14
2022-12-03T08:39:46.863Z,6.01
2022-12-03T08:42:49.140Z,6.01
2022-12-03T08:45:52.800Z,5.90
2022-12-03T08:48:54.870Z,5.50
2022-12-03T08:52:00.626Z,5.62
2022-12-03T08:55:28.788Z,5.86
2022-12-03T08:58:36.522Z,6.02
2022-12-03T09:01:43.022Z,6.43
2022-12-03T09:04:47.613Z,6.82
2022-12-03T09:07:50.828Z,6.60
2022-12-03T09:10:53.116Z,6.78
2022-12-03T09:13:55.467Z,6.81
2022-12-03T09:16:57.695Z,7.02
2022-12-03T09:19:59.831Z,6.88
2022-12-03T09:23:01.929Z,7.15
2022-12-03T09:26:04.078Z,7.06
2022-12-03T09:29:10.558Z,6.89
2022-12-03T09:32:18.319Z,6.78
2022-12-03T09:35:20.959Z,6.86
2022-12-03T09:38:23.005Z,6.84
2022-12-03T09:41:25.258Z,6.51
2022-12-03T09:44:33.120Z,6.96
2022-12-03T09:47:35.146Z,6.87
2022-12-03T09:50:37.192Z,7.27
2022-12-03T09:53:41.370Z,6.70
2022-12-03T09:56:43.589Z,6.67
2022-12-03T09:59:45.665Z,6.58
2022-12-03T10:02:47.794Z,6.79
2022-12-03T10:05:50.070Z,6.76
2022-12-03T10:08:54.534Z,6.75
2022-12-03T10:11:57.818Z,6.64
2022-12-03T10:14:59.841Z,6.93
2022-12-03T10:18:02.317Z,7.23
2022-12-03T10:21:32.469Z,7.59
2022-12-03T10:24:36.717Z,8.37
2022-12-03T10:27:39.187Z,8.18
2022-12-03T10:30:41.270Z,8.64
2022-12-03T10:33:45.285Z,8.91
2022-12-03T10:36:47.341Z,9.11
2022-12-03T10:40:00.982Z,8.28
2022-12-03T10:43:29.289Z,7.69
2022-12-03T10:46:34.342Z,7.49
2022-12-03T10:49:36.469Z,7.86
2022-12-03T10:52:38.496Z,7.92
2022-12-03T10:55:42.253Z,7.72
2022-12-03T10:58:44.361Z,7.77
2022-12-03T11:01:46.637Z,8.16
2022-12-03T11:04:49.009Z,8.74
2022-12-03T11:07:51.055Z,8.45
2022-12-03T11:11:05.439Z,9.11
2022-12-03T11:14:08.308Z,9.66
2022-12-03T11:17:10.404Z,10.14
2022-12-03T11:20:24.197Z,10.07
2022-12-03T11:23:51.822Z,10.93
2022-12-03T11:26:53.725Z,11.66
2022-12-03T11:30:00.145Z,12.02
2022-12-03T11:33:02.281Z,11.76
2022-12-03T11:36:04.243Z,11.90
2022-12-03T11:39:08.097Z,11.79
2022-12-03T11:42:40.078Z,9.78
2022-12-03T11:45:42.103Z,8.56
2022-12-03T11:48:48.464Z,8.25
2022-12-03T11:51:50.578Z,8.01
2022-12-03T11:54:56.359Z,7.66
2022-12-03T11:58:25.203Z,7.88
2022-12-03T12:01:53.894Z,8.58
2022-12-03T12:04:55.834Z,8.14
2022-12-03T12:07:58.130Z,7.96
2022-12-03T12:11:00.397Z,8.64
2022-12-03T12:14:06.927Z,9.03
2022-12-03T12:17:35.472Z,9.79
2022-12-03T12:20:38.000Z,10.44
2022-12-03T12:23:40.041Z,13.74
2022-12-03T12:26:51.495Z,10.59
2022-12-03T12:29:56.462Z,11.03
2022-12-03T12:33:14.140Z,9.78
2022-12-03T12:36:16.180Z,9.37
2022-12-03T12:39:18.270Z,9.42
2022-12-03T12:42:37.158Z,9.69
2022-12-03T12:45:43.866Z,9.61
2022-12-03T12:48:45.920Z,9.58
2022-12-03T12:51:49.394Z,9.50
2022-12-03T12:54:51.447Z,9.30
2022-12-03T12:57:53.586Z,9.21
2022-12-03T13:00:58.484Z,9.36
2022-12-03T13:04:00.549Z,9.08
2022-12-03T13:07:02.596Z,9.70
2022-12-03T13:10:28.371Z,9.69
2022-12-03T13:13:44.223Z,10.50
2022-12-03T13:16:47.985Z,14.32
2022-12-03T13:19:58.196Z,15.33
2022-12-03T13:23:35.206Z,16.27
2022-12-03T13:26:39.685Z,15.76
2022-12-03T13:29:41.930Z,12.64
2022-12-03T13:32:44.095Z,10.89
2022-12-03T13:35:46.633Z,10.43
2022-12-03T13:38:49.001Z,10.34
2022-12-03T13:42:09.861Z,10.27
2022-12-03T13:45:15.037Z,10.27
2022-12-03T13:48:31.331Z,10.43
2022-12-03T13:51:33.477Z,10.24
2022-12-03T13:54:37.865Z,10.45
2022-12-03T13:57:39.902Z,9.53
2022-12-03T14:00:42.022Z,9.67
2022-12-03T14:03:44.172Z,10.02
2022-12-03T14:06:46.198Z,9.57
2022-12-03T14:09:48.214Z,8.80
2022-12-03T14:12:50.385Z,8.77
2022-12-03T14:15:52.429Z,8.42
2022-12-03T14:18:54.470Z,8.30
2022-12-03T14:21:56.530Z,7.78
2022-12-03T14:24:58.644Z,8.33
2022-12-03T14:28:00.838Z,8.02
2022-12-03T14:31:02.869Z,8.09
2022-12-03T14:34:04.954Z,8.29
2022-12-03T14:37:07.010Z,8.47
2022-12-03T14:40:09.445Z,8.56
2022-12-03T14:43:11.505Z,8.89
2022-12-03T14:46:13.609Z,8.86
2022-12-03T14:49:15.911Z,8.67
2022-12-03T14:52:18.533Z,8.74
2022-12-03T14:55:20.568Z,9.94
2022-12-03T14:58:22.614Z,10.49
2022-12-03T15:01:24.799Z,8.77
2022-12-03T15:04:26.896Z,7.64
2022-12-03T15:07:29.075Z,6.98
2022-12-03T15:10:31.205Z,6.33
2022-12-03T15:13:33.300Z,6.47
2022-12-03T15:16:35.647Z,6.01
2022-12-03T15:19:37.769Z,5.88
2022-12-03T15:22:39.847Z,6.44
2022-12-03T15:25:41.966Z,5.68
2022-12-03T15:28:48.087Z,5.69
2022-12-03T15:31:50.552Z,5.65
2022-12-03T15:34:52.667Z,5.62
2022-12-03T15:37:54.709Z,5.79
2022-12-03T15:40:56.818Z,5.98
2022-12-03T15:44:01.637Z,5.82
2022-12-03T15:47:03.721Z,5.49
2022-12-03T15:50:06.747Z,5.07
2022-12-03T15:53:08.799Z,4.66
2022-12-03T15:56:12.122Z,4.57
2022-12-03T15:59:14.193Z,4.57
2022-12-03T16:02:16.448Z,4.42
2022-12-03T16:05:18.608Z,4.41
2022-12-03T16:08:20.750Z,4.30
2022-12-03T16:11:22.873Z,4.42
2022-12-03T16:14:24.939Z,4.48
2022-12-03T16:17:26.964Z,4.10
2022-12-03T16:20:28.999Z,4.12
2022-12-03T16:23:31.075Z,4.33
2022-12-03T16:26:33.151Z,4.28
2022-12-03T16:29:35.265Z,4.14
2022-12-03T16:32:37.604Z,4.13
2022-12-03T16:35:39.702Z,4.20
2022-12-03T16:38:42.338Z,4.29
2022-12-03T16:41:44.391Z,4.11
2022-12-03T16:45:04.663Z,4.06
2022-12-03T16:48:06.767Z,4.14
2022-12-03T16:51:09.113Z,4.56
2022-12-03T16:54:11.752Z,5.48
2022-12-03T16:57:13.906Z,5.83
2022-12-03T17:00:16.651Z,5.92
2022-12-03T17:03:19.017Z,6.08
2022-12-03T17:06:21.122Z,6.59
2022-12-03T17:09:23.846Z,6.63
2022-12-03T17:12:37.471Z,6.13
2022-12-03T17:15:48.053Z,5.97
2022-12-03T17:18:50.150Z,5.83
2022-12-03T17:21:53.997Z,5.88
2022-12-03T17:24:56.062Z,5.45
2022-12-03T17:27:58.328Z,5.38
2022-12-03T17:31:00.414Z,5.35
2022-12-03T17:34:02.523Z,5.30
2022-12-03T17:37:04.650Z,5.22
2022-12-03T17:40:08.346Z,5.55
2022-12-03T17:43:10.413Z,5.33
2022-12-03T17:46:12.524Z,5.60
2022-12-03T17:49:14.668Z,5.73
2022-12-03T17:52:16.732Z,5.48
2022-12-03T17:55:29.698Z,5.82
2022-12-03T17:58:35.763Z,5.84
2022-12-03T18:01:37.888Z,5.34
2022-12-03T18:04:40.043Z,5.19
2022-12-03T18:07:42.201Z,4.83
2022-12-03T18:10:44.349Z,4.91
2022-12-03T18:13:46.414Z,4.58
2022-12-03T18:16:48.499Z,4.47
2022-12-03T18:19:50.601Z,4.42
2022-12-03T18:22:52.636Z,4.36
2022-12-03T18:25:55.038Z,4.34
2022-12-03T18:28:57.138Z,4.48
2022-12-03T18:31:59.258Z,4.49
2022-12-03T18:35:01.368Z,4.30
2022-12-03T18:38:03.414Z,4.38
2022-12-03T18:41:05.557Z,4.44
2022-12-03T18:44:09.633Z,5.11
2022-12-03T18:47:13.682Z,5.22
2022-12-03T18:50:15.820Z,5.41
2022-12-03T18:53:18.696Z,5.16
2022-12-03T18:56:20.726Z,5.50
2022-12-03T18:59:22.761Z,5.72
2022-12-03T19:05:46.842Z,5.80
2022-12-03T19:08:53.945Z,5.92
2022-12-03T19:11:55.959Z,6.04
2022-12-03T19:14:58.057Z,5.99
2022-12-03T19:18:00.114Z,6.07
2022-12-03T19:21:10.720Z,5.33
2022-12-03T19:24:28.046Z,5.68
2022-12-03T19:27:30.808Z,5.49
2022-12-03T19:30:32.868Z,5.38
2022-12-03T19:33:35.201Z,5.32
2022-12-03T19:36:37.244Z,5.32
2022-12-03T19:39:39.352Z,5.37
2022-12-03T19:42:41.564Z,5.98
2022-12-03T19:45:43.653Z,6.15
2022-12-03T19:48:45.901Z,5.95
2022-12-03T19:51:48.031Z,5.48
2022-12-03T19:54:50.061Z,5.51
2022-12-03T19:57:52.078Z,5.60
2022-12-03T20:00:54.142Z,5.48
2022-12-03T20:03:57.814Z,5.17
2022-12-03T20:06:59.883Z,5.43
2022-12-03T20:10:02.226Z,5.37
2022-12-03T20:13:04.352Z,5.70
2022-12-03T20:16:08.682Z,5.52
2022-12-03T20:19:17.742Z,5.45
2022-12-03T20:22:19.805Z,5.72
2022-12-03T20:25:21.858Z,5.94
2022-12-03T20:28:24.077Z,6.15
2022-12-03T20:31:29.143Z,5.90
2022-12-03T20:34:31.345Z,5.79
2022-12-03T20:37:33.576Z,5.78
2022-12-03T20:40:39.062Z,5.37
2022-12-03T20:43:41.488Z,5.39
2022-12-03T20:46:43.632Z,5.91
2022-12-03T20:49:46.721Z,6.08
2022-12-03T20:53:16.310Z,6.50
2022-12-03T20:56:11.212Z,6.26
2022-12-03T20:59:14.868Z,6.14
2022-12-03T21:02:17.089Z,6.25
2022-12-03T21:05:19.217Z,6.34
2022-12-03T21:08:40.043Z,6.20
2022-12-03T21:11:43.301Z,6.13
2022-12-03T21:14:45.537Z,5.78
2022-12-03T21:17:47.629Z,5.79
2022-12-03T21:20:49.792Z,6.02
2022-12-03T21:23:52.910Z,5.85
2022-12-03T21:26:54.996Z,5.85
2022-12-03T21:29:57.217Z,5.85
2022-12-03T21:32:59.588Z,5.93
2022-12-03T21:36:01.917Z,5.83
2022-12-03T21:39:05.334Z,6.04
2022-12-03T21:42:34.289Z,6.08
2022-12-03T21:45:29.491Z,5.83
2022-12-03T21:48:31.750Z,5.93
2022-12-03T21:51:33.942Z,5.89
2022-12-03T21:54:36.080Z,5.31
2022-12-03T21:57:38.232Z,5.13
2022-12-03T22:00:40.297Z,4.96
2022-12-03T22:03:42.747Z,5.13
2022-12-03T22:06:44.816Z,4.77
2022-12-03T22:09:46.934Z,4.65
2022-12-03T22:12:49.063Z,5.03
2022-12-03T22:15:51.309Z,5.35
2022-12-03T22:18:54.589Z,5.11
2022-12-03T22:21:56.714Z,4.95
2022-12-03T22:24:58.775Z,5.09
2022-12-03T22:28:00.863Z,4.94
2022-12-03T22:31:07.395Z,5.13
2022-12-03T22:34:09.523Z,5.39
2022-12-03T22:37:11.611Z,5.15
2022-12-03T22:40:13.980Z,5.45
2022-12-03T22:43:16.298Z,5.55
2022-12-03T22:46:18.474Z,5.36
2022-12-03T22:49:20.630Z,5.22
2022-12-03T22:52:22.794Z,5.28
2022-12-03T22:55:24.888Z,5.40
2022-12-03T22:58:27.622Z,5.18
2022-12-03T23:01:35.288Z,5.36
2022-12-03T23:04:37.360Z,5.16
2022-12-03T23:07:39.459Z,4.92
2022-12-03T23:10:44.587Z,4.08
2022-12-03T23:13:47.961Z,4.06
2022-12-03T23:16:49.988Z,4.46
2022-12-03T23:19:52.161Z,4.77
2022-12-03T23:22:55.000Z,5.14
2022-12-03T23:26:05.997Z,5.04
2022-12-03T23:29:08.576Z,5.15
2022-12-03T23:32:10.737Z,4.88
2022-12-03T23:35:12.844Z,4.82
2022-12-03T23:38:14.883Z,4.58
2022-12-03T23:41:19.809Z,4.32
2022-12-03T23:44:21.854Z,4.14
2022-12-03T23:47:24.165Z,4.34
2022-12-03T23:50:26.822Z,4.27
2022-12-03T23:53:29.562Z,4.45
2022-12-03T23:56:31.693Z,4.54
2022-12-03T23:59:33.738Z,5.15
